sensor_id;sensor_type;location;lat;lon;timestamp;pressure;altitude;pressure_sealevel;temperature;humidity
50011;BME280;35899;50.352;19.390;2022-12-18T00:02:12;99086.45;;;-5.13;98.94
50011;BME280;35899;50.352;19.390;2022-12-18T00:04:38;99090.67;;;-5.14;98.70
50011;BME280;35899;50.352;19.390;2022-12-18T00:07:05;99096.13;;;-5.14;98.67
50011;BME280;35899;50.352;19.390;2022-12-18T00:09:31;99101.66;;;-5.12;98.82
50011;BME280;35899;50.352;19.390;2022-12-18T00:11:57;99101.66;;;-5.12;98.75
50011;BME280;35899;50.352;19.390;2022-12-18T00:14:24;99104.22;;;-5.10;98.67
50011;BME280;35899;50.352;19.390;2022-12-18T00:16:50;99105.48;;;-5.10;98.67
50011;BME280;35899;50.352;19.390;2022-12-18T00:19:17;99105.08;;;-5.08;98.73
50011;BME280;35899;50.352;19.390;2022-12-18T00:21:43;99106.34;;;-5.06;98.79
50011;BME280;35899;50.352;19.390;2022-12-18T00:24:10;99108.05;;;-5.05;98.69
50011;BME280;35899;50.352;19.390;2022-12-18T00:26:38;99113.98;;;-5.03;98.72
50011;BME280;35899;50.352;19.390;2022-12-18T00:29:09;99110.63;;;-5.02;98.79
50011;BME280;35899;50.352;19.390;2022-12-18T00:31:39;99117.37;;;-5.01;98.80
50011;BME280;35899;50.352;19.390;2022-12-18T00:34:08;99122.89;;;-5.00;98.82
50011;BME280;35899;50.352;19.390;2022-12-18T00:36:40;99120.36;;;-5.00;98.84
50011;BME280;35899;50.352;19.390;2022-12-18T00:39:08;99119.51;;;-4.99;98.78
50011;BME280;35899;50.352;19.390;2022-12-18T00:41:36;99121.62;;;-5.00;98.75
50011;BME280;35899;50.352;19.390;2022-12-18T00:44:04;99124.56;;;-5.02;98.56
50011;BME280;35899;50.352;19.390;2022-12-18T00:46:32;99122.02;;;-5.02;98.68
50011;BME280;35899;50.352;19.390;2022-12-18T00:48:59;99127.51;;;-5.01;98.84
50011;BME280;35899;50.352;19.390;2022-12-18T00:51:26;99127.98;;;-4.99;98.92
50011;BME280;35899;50.352;19.390;2022-12-18T00:53:53;99135.16;;;-4.98;98.77
50011;BME280;35899;50.352;19.390;2022-12-18T00:56:23;99138.08;;;-5.00;98.59
50011;BME280;35899;50.352;19.390;2022-12-18T00:58:50;99146.08;;;-5.01;98.49
50011;BME280;35899;50.352;19.390;2022-12-18T01:01:17;99152.02;;;-5.00;98.63
50011;BME280;35899;50.352;19.390;2022-12-18T01:03:43;99150.75;;;-5.00;98.72
50011;BME280;35899;50.352;19.390;2022-12-18T01:06:11;99156.22;;;-4.99;98.76
50011;BME280;35899;50.352;19.390;2022-12-18T01:08:38;99162.16;;;-4.99;98.70
50011;BME280;35899;50.352;19.390;2022-12-18T01:11:10;99166.38;;;-4.98;98.75
50011;BME280;35899;50.352;19.390;2022-12-18T01:13:37;99171.89;;;-4.97;98.78
50011;BME280;35899;50.352;19.390;2022-12-18T01:16:05;99164.30;;;-4.97;98.78
50011;BME280;35899;50.352;19.390;2022-12-18T01:18:33;99165.14;;;-4.96;98.83
50011;BME280;35899;50.352;19.390;2022-12-18T01:21:00;99170.62;;;-4.95;98.83
50011;BME280;35899;50.352;19.390;2022-12-18T01:23:26;99171.88;;;-4.95;98.81
50011;BME280;35899;50.352;19.390;2022-12-18T01:25:53;99177.40;;;-4.94;98.91
50011;BME280;35899;50.352;19.390;2022-12-18T01:28:19;99186.27;;;-4.94;98.76
50011;BME280;35899;50.352;19.390;2022-12-18T01:30:46;99181.17;;;-4.96;98.73
50011;BME280;35899;50.352;19.390;2022-12-18T01:33:12;99186.69;;;-4.95;98.83
50011;BME280;35899;50.352;19.390;2022-12-18T01:35:42;99186.27;;;-4.94;98.78
50011;BME280;35899;50.352;19.390;2022-12-18T01:38:09;99182.88;;;-4.93;98.89
50011;BME280;35899;50.352;19.390;2022-12-18T01:40:36;99182.88;;;-4.93;98.80
50011;BME280;35899;50.352;19.390;2022-12-18T01:43:02;99180.34;;;-4.93;98.87
50011;BME280;35899;50.352;19.390;2022-12-18T01:45:30;99185.44;;;-4.92;98.89
50011;BME280;35899;50.352;19.390;2022-12-18T01:48:00;99188.84;;;-4.91;98.89
50011;BME280;35899;50.352;19.390;2022-12-18T01:50:36;99183.78;;;-4.91;98.92
50011;BME280;35899;50.352;19.390;2022-12-18T01:53:14;99178.29;;;-4.91;98.85
50011;BME280;35899;50.352;19.390;2022-12-18T01:55:50;99188.42;;;-4.91;98.89
50011;BME280;35899;50.352;19.390;2022-12-18T01:58:19;99185.46;;;-4.90;98.86
50011;BME280;35899;50.352;19.390;2022-12-18T02:00:48;99189.27;;;-4.90;98.77
50011;BME280;35899;50.352;19.390;2022-12-18T02:03:14;99196.86;;;-4.90;98.74
50011;BME280;35899;50.352;19.390;2022-12-18T02:06:06;99202.77;;;-4.91;98.75
50011;BME280;35899;50.352;19.390;2022-12-18T02:08:39;99205.28;;;-4.93;98.62
50011;BME280;35899;50.352;19.390;2022-12-18T02:11:39;99206.57;;;-4.91;98.87
50011;BME280;35899;50.352;19.390;2022-12-18T02:14:28;99213.75;;;-4.91;98.96
50011;BME280;35899;50.352;19.390;2022-12-18T02:17:06;99217.96;;;-4.89;99.01
50011;BME280;35899;50.352;19.390;2022-12-18T02:31:23;99232.77;;;-4.89;99.02
50011;BME280;35899;50.352;19.390;2022-12-18T02:33:58;99237.83;;;-4.89;99.03
50011;BME280;35899;50.352;19.390;2022-12-18T02:36:27;99237.80;;;-4.91;99.04
50011;BME280;35899;50.352;19.390;2022-12-18T02:38:56;99239.09;;;-4.89;99.05
50011;BME280;35899;50.352;19.390;2022-12-18T02:41:23;99240.36;;;-4.89;99.17
50011;BME280;35899;50.352;19.390;2022-12-18T02:43:57;99242.50;;;-4.87;99.26
50011;BME280;35899;50.352;19.390;2022-12-18T02:46:41;99244.58;;;-4.88;99.09
50011;BME280;35899;50.352;19.390;2022-12-18T02:52:31;99247.09;;;-4.89;99.07
50011;BME280;35899;50.352;19.390;2022-12-18T02:58:29;99257.22;;;-4.89;99.14
50011;BME280;35899;50.352;19.390;2022-12-18T03:04:05;99265.66;;;-4.91;99.28
50011;BME280;35899;50.352;19.390;2022-12-18T03:06:35;99265.66;;;-4.91;99.18
50011;BME280;35899;50.352;19.390;2022-12-18T03:09:10;99266.93;;;-4.91;99.27
50011;BME280;35899;50.352;19.390;2022-12-18T03:11:42;99276.64;;;-4.90;99.31
50011;BME280;35899;50.352;19.390;2022-12-18T03:14:12;99281.30;;;-4.88;99.41
50011;BME280;35899;50.352;19.390;2022-12-18T03:16:42;99279.64;;;-4.86;99.42
50011;BME280;35899;50.352;19.390;2022-12-18T03:19:14;99281.78;;;-4.85;99.39
50011;BME280;35899;50.352;19.390;2022-12-18T03:21:49;99288.11;;;-4.85;99.28
50011;BME280;35899;50.352;19.390;2022-12-18T03:24:18;99293.58;;;-4.86;99.30
50011;BME280;35899;50.352;19.390;2022-12-18T03:26:49;99288.50;;;-4.86;99.28
50011;BME280;35899;50.352;19.390;2022-12-18T03:31:54;99290.63;;;-4.87;99.21
50011;BME280;35899;50.352;19.390;2022-12-18T03:34:29;99291.02;;;-4.87;99.34
50011;BME280;35899;50.352;19.390;2022-12-18T03:36:58;99301.17;;;-4.86;99.39
50011;BME280;35899;50.352;19.390;2022-12-18T03:39:25;99297.38;;;-4.86;99.42
50011;BME280;35899;50.352;19.390;2022-12-18T03:42:25;99306.29;;;-4.83;99.51
50011;BME280;35899;50.352;19.390;2022-12-18T03:45:24;99303.30;;;-4.84;99.45
50011;BME280;35899;50.352;19.390;2022-12-18T03:51:01;99304.59;;;-4.82;99.46
50011;BME280;35899;50.352;19.390;2022-12-18T03:56:12;99313.86;;;-4.84;99.34
50011;BME280;35899;50.352;19.390;2022-12-18T03:58:41;99320.16;;;-4.86;99.29
50011;BME280;35899;50.352;19.390;2022-12-18T04:01:13;99325.27;;;-4.84;99.40
50011;BME280;35899;50.352;19.390;2022-12-18T04:03:43;99331.59;;;-4.84;99.38
50011;BME280;35899;50.352;19.390;2022-12-18T04:06:11;99330.33;;;-4.84;99.34
50011;BME280;35899;50.352;19.390;2022-12-18T04:08:40;99321.88;;;-4.85;99.25
50011;BME280;35899;50.352;19.390;2022-12-18T04:11:07;99331.56;;;-4.86;99.26
50011;BME280;35899;50.352;19.390;2022-12-18T04:13:38;99334.97;;;-4.85;99.26
50011;BME280;35899;50.352;19.390;2022-12-18T04:16:07;99329.48;;;-4.85;99.31
50011;BME280;35899;50.352;19.390;2022-12-18T04:18:34;99329.91;;;-4.85;99.33
50011;BME280;35899;50.352;19.390;2022-12-18T04:21:00;99330.75;;;-4.85;99.37
50011;BME280;35899;50.352;19.390;2022-12-18T04:23:28;99338.77;;;-4.84;99.35
50011;BME280;35899;50.352;19.390;2022-12-18T04:25:56;99343.84;;;-4.85;99.25
50011;BME280;35899;50.352;19.390;2022-12-18T04:28:24;99345.92;;;-4.86;99.28
50011;BME280;35899;50.352;19.390;2022-12-18T04:30:51;99342.94;;;-4.87;99.22
50011;BME280;35899;50.352;19.390;2022-12-18T04:33:18;99352.22;;;-4.88;99.29
50011;BME280;35899;50.352;19.390;2022-12-18T04:35:45;99354.78;;;-4.86;99.43
50011;BME280;35899;50.352;19.390;2022-12-18T04:38:13;99353.09;;;-4.86;99.30
50011;BME280;35899;50.352;19.390;2022-12-18T04:40:40;99355.99;;;-4.89;99.16
50011;BME280;35899;50.352;19.390;2022-12-18T04:43:08;99358.53;;;-4.91;99.13
50011;BME280;35899;50.352;19.390;2022-12-18T04:45:35;99366.94;;;-4.92;99.15
50011;BME280;35899;50.352;19.390;2022-12-18T04:48:01;99369.02;;;-4.93;99.03
50011;BME280;35899;50.352;19.390;2022-12-18T04:50:29;99374.54;;;-4.92;99.17
50011;BME280;35899;50.352;19.390;2022-12-18T04:52:56;99377.52;;;-4.91;99.28
50011;BME280;35899;50.352;19.390;2022-12-18T04:55:26;99380.45;;;-4.92;99.22
50011;BME280;35899;50.352;19.390;2022-12-18T04:57:53;99380.84;;;-4.94;99.11
50011;BME280;35899;50.352;19.390;2022-12-18T05:00:20;99389.70;;;-4.94;99.06
50011;BME280;35899;50.352;19.390;2022-12-18T05:02:47;99392.66;;;-4.94;99.21
50011;BME280;35899;50.352;19.390;2022-12-18T05:05:13;99393.08;;;-4.93;99.31
50011;BME280;35899;50.352;19.390;2022-12-18T05:07:40;99401.58;;;-4.91;99.40
50011;BME280;35899;50.352;19.390;2022-12-18T05:10:08;99405.35;;;-4.93;99.26
50011;BME280;35899;50.352;19.390;2022-12-18T05:12:34;99403.63;;;-4.94;99.26
50011;BME280;35899;50.352;19.390;2022-12-18T05:15:05;99403.21;;;-4.93;99.23
50011;BME280;35899;50.352;19.390;2022-12-18T05:17:32;99404.48;;;-4.95;99.17
50011;BME280;35899;50.352;19.390;2022-12-18T05:19:58;99400.65;;;-4.96;99.26
50011;BME280;35899;50.352;19.390;2022-12-18T05:22:24;99406.13;;;-4.95;99.37
50011;BME280;35899;50.352;19.390;2022-12-18T05:24:51;99406.13;;;-4.95;99.34
50011;BME280;35899;50.352;19.390;2022-12-18T05:27:17;99408.25;;;-4.96;99.20
50011;BME280;35899;50.352;19.390;2022-12-18T05:29:43;99409.06;;;-4.99;99.03
50011;BME280;35899;50.352;19.390;2022-12-18T05:32:10;99417.50;;;-4.98;99.13
50011;BME280;35899;50.352;19.390;2022-12-18T05:34:36;99410.75;;;-4.98;99.30
50011;BME280;35899;50.352;19.390;2022-12-18T05:37:03;99414.13;;;-4.97;99.33
50011;BME280;35899;50.352;19.390;2022-12-18T05:39:29;99421.72;;;-4.99;99.16
50011;BME280;35899;50.352;19.390;2022-12-18T05:41:55;99426.33;;;-5.00;99.10
50011;BME280;35899;50.352;19.390;2022-12-18T05:44:22;99427.14;;;-5.01;99.16
50011;BME280;35899;50.352;19.390;2022-12-18T05:46:48;99424.61;;;-5.02;99.14
50011;BME280;35899;50.352;19.390;2022-12-18T05:49:14;99425.43;;;-5.03;99.05
50011;BME280;35899;50.352;19.390;2022-12-18T05:51:41;99426.70;;;-5.03;99.21
50011;BME280;35899;50.352;19.390;2022-12-18T05:54:07;99431.34;;;-5.04;99.17
50011;BME280;35899;50.352;19.390;2022-12-18T05:56:33;99430.88;;;-5.05;99.17
50011;BME280;35899;50.352;19.390;2022-12-18T05:59:00;99433.41;;;-5.05;99.22
50011;BME280;35899;50.352;19.390;2022-12-18T06:01:26;99431.30;;;-5.06;99.28
50011;BME280;35899;50.352;19.390;2022-12-18T06:03:52;99435.13;;;-5.04;99.39
50011;BME280;35899;50.352;19.390;2022-12-18T06:06:22;99442.31;;;-5.04;99.38
50011;BME280;35899;50.352;19.390;2022-12-18T06:08:49;99449.06;;;-5.04;99.48
50011;BME280;35899;50.352;19.390;2022-12-18T06:11:20;99445.27;;;-5.04;99.45
50011;BME280;35899;50.352;19.390;2022-12-18T06:13:49;99450.33;;;-5.04;99.34
50011;BME280;35899;50.352;19.390;2022-12-18T06:16:21;99454.48;;;-5.06;99.31
50011;BME280;35899;50.352;19.390;2022-12-18T06:18:47;99454.45;;;-5.09;99.25
50011;BME280;35899;50.352;19.390;2022-12-18T06:21:13;99460.78;;;-5.09;99.30
50011;BME280;35899;50.352;19.390;2022-12-18T06:23:40;99462.02;;;-5.11;99.32
50011;BME280;35899;50.352;19.390;2022-12-18T06:26:11;99464.12;;;-5.11;99.33
50011;BME280;35899;50.352;19.390;2022-12-18T06:28:38;99471.69;;;-5.14;99.22
50011;BME280;35899;50.352;19.390;2022-12-18T06:31:05;99473.77;;;-5.15;99.17
50011;BME280;35899;50.352;19.390;2022-12-18T06:33:33;99478.79;;;-5.18;99.14
50011;BME280;35899;50.352;19.390;2022-12-18T06:36:05;99477.42;;;-5.22;99.06
50011;BME280;35899;50.352;19.390;2022-12-18T06:38:33;99477.00;;;-5.23;99.19
50011;BME280;35899;50.352;19.390;2022-12-18T06:41:13;99482.03;;;-5.25;99.08
50011;BME280;35899;50.352;19.390;2022-12-18T06:43:41;99487.48;;;-5.27;99.04
50011;BME280;35899;50.352;19.390;2022-12-18T06:46:08;99492.09;;;-5.28;99.00
50011;BME280;35899;50.352;19.390;2022-12-18T06:48:35;99498.42;;;-5.28;99.00
50011;BME280;35899;50.352;19.390;2022-12-18T06:51:03;99502.67;;;-5.27;99.03
50011;BME280;35899;50.352;19.390;2022-12-18T06:53:29;99502.70;;;-5.25;99.09
50011;BME280;35899;50.352;19.390;2022-12-18T06:56:05;99505.66;;;-5.24;99.09
50011;BME280;35899;50.352;19.390;2022-12-18T06:58:33;99512.45;;;-5.22;98.99
50011;BME280;35899;50.352;19.390;2022-12-18T07:01:00;99516.31;;;-5.19;99.00
50011;BME280;35899;50.352;19.390;2022-12-18T07:03:27;99513.39;;;-5.17;99.06
50011;BME280;35899;50.352;19.390;2022-12-18T07:05:54;99515.16;;;-5.13;99.18
50011;BME280;35899;50.352;19.390;2022-12-18T07:08:20;99517.33;;;-5.09;99.09
50011;BME280;35899;50.352;19.390;2022-12-18T07:10:47;99527.11;;;-5.05;99.12
50011;BME280;35899;50.352;19.390;2022-12-18T07:13:13;99523.80;;;-5.01;99.13
50011;BME280;35899;50.352;19.390;2022-12-18T07:15:39;99531.88;;;-4.97;99.21
50011;BME280;35899;50.352;19.390;2022-12-18T07:18:06;99535.36;;;-4.92;99.25
50011;BME280;35899;50.352;19.390;2022-12-18T07:20:33;99541.77;;;-4.87;99.32
50011;BME280;35899;50.352;19.390;2022-12-18T07:23:01;99538.42;;;-4.86;98.96
50011;BME280;35899;50.352;19.390;2022-12-18T07:25:29;99552.41;;;-4.83;98.95
50011;BME280;35899;50.352;19.390;2022-12-18T07:27:55;99554.56;;;-4.80;98.85
50011;BME280;35899;50.352;19.390;2022-12-18T07:30:22;99561.34;;;-4.79;98.54
50011;BME280;35899;50.352;19.390;2022-12-18T07:32:48;99557.55;;;-4.79;98.28
50011;BME280;35899;50.352;19.390;2022-12-18T07:35:15;99560.54;;;-4.76;98.26
50011;BME280;35899;50.352;19.390;2022-12-18T07:37:41;99562.69;;;-4.74;98.19
50011;BME280;35899;50.352;19.390;2022-12-18T07:40:09;99568.70;;;-4.69;98.17
50011;BME280;35899;50.352;19.390;2022-12-18T07:42:37;99564.98;;;-4.63;98.20
50011;BME280;35899;50.352;19.390;2022-12-18T07:45:04;99577.79;;;-4.55;98.15
50011;BME280;35899;50.352;19.390;2022-12-18T07:47:36;99577.86;;;-4.52;98.04
50011;BME280;35899;50.352;19.390;2022-12-18T07:50:03;99578.31;;;-4.49;97.68
50011;BME280;35899;50.352;19.390;2022-12-18T07:52:30;99580.06;;;-4.47;97.71
50011;BME280;35899;50.352;19.390;2022-12-18T07:54:57;99575.54;;;-4.40;97.97
50011;BME280;35899;50.352;19.390;2022-12-18T07:57:23;99569.72;;;-4.33;97.91
50011;BME280;35899;50.352;19.390;2022-12-18T07:59:49;99583.30;;;-4.29;97.56
50011;BME280;35899;50.352;19.390;2022-12-18T08:02:16;99578.74;;;-4.23;97.61
50011;BME280;35899;50.352;19.390;2022-12-18T08:04:42;99579.28;;;-4.16;97.46
50011;BME280;35899;50.352;19.390;2022-12-18T08:07:09;99573.45;;;-4.10;97.21
50011;BME280;35899;50.352;19.390;2022-12-18T08:09:35;99575.26;;;-4.02;97.01
50011;BME280;35899;50.352;19.390;2022-12-18T08:12:02;99575.93;;;-3.85;97.29
50011;BME280;35899;50.352;19.390;2022-12-18T08:14:28;99578.67;;;-3.70;97.25
50011;BME280;35899;50.352;19.390;2022-12-18T08:16:54;99583.54;;;-3.56;97.37
50011;BME280;35899;50.352;19.390;2022-12-18T08:19:21;99578.59;;;-3.46;96.67
50011;BME280;35899;50.352;19.390;2022-12-18T08:21:47;99582.94;;;-3.36;96.32
50011;BME280;35899;50.352;19.390;2022-12-18T08:24:14;99585.59;;;-3.27;96.14
50011;BME280;35899;50.352;19.390;2022-12-18T08:26:40;99590.76;;;-3.19;95.66
50011;BME280;35899;50.352;19.390;2022-12-18T08:29:08;99582.45;;;-3.06;95.57
50011;BME280;35899;50.352;19.390;2022-12-18T08:31:36;99585.89;;;-2.99;95.24
50011;BME280;35899;50.352;19.390;2022-12-18T08:34:03;99579.63;;;-2.91;95.13
50011;BME280;35899;50.352;19.390;2022-12-18T08:36:29;99584.02;;;-2.77;95.04
50011;BME280;35899;50.352;19.390;2022-12-18T08:38:56;99590.59;;;-2.55;95.26
50011;BME280;35899;50.352;19.390;2022-12-18T08:41:23;99593.70;;;-2.39;94.97
50011;BME280;35899;50.352;19.390;2022-12-18T08:43:50;99591.69;;;-2.25;94.12
50011;BME280;35899;50.352;19.390;2022-12-18T08:46:18;99603.64;;;-2.13;94.04
50011;BME280;35899;50.352;19.390;2022-12-18T08:48:45;99604.67;;;-1.91;93.82
50011;BME280;35899;50.352;19.390;2022-12-18T08:51:12;99613.78;;;-1.64;93.14
50011;BME280;35899;50.352;19.390;2022-12-18T08:53:39;99617.70;;;-1.44;92.89
50011;BME280;35899;50.352;19.390;2022-12-18T08:56:06;99615.64;;;-1.26;92.56
50011;BME280;35899;50.352;19.390;2022-12-18T08:58:32;99612.36;;;-1.02;92.48
50011;BME280;35899;50.352;19.390;2022-12-18T09:01:07;99610.26;;;-0.96;90.20
50011;BME280;35899;50.352;19.390;2022-12-18T09:03:34;99610.70;;;-0.90;90.03
50011;BME280;35899;50.352;19.390;2022-12-18T09:06:01;99620.98;;;-0.64;91.01
50011;BME280;35899;50.352;19.390;2022-12-18T09:08:28;99621.45;;;-0.42;91.38
50011;BME280;35899;50.352;19.390;2022-12-18T09:10:55;99626.14;;;-0.03;91.44
50011;BME280;35899;50.352;19.390;2022-12-18T09:13:21;99631.22;;;-0.29;88.13
50011;BME280;35899;50.352;19.390;2022-12-18T09:15:51;99631.22;;;-0.29;88.13
50011;BME280;35899;50.352;19.390;2022-12-18T09:18:20;99631.64;;;-0.43;88.12
50011;BME280;35899;50.352;19.390;2022-12-18T09:20:48;99639.70;;;-0.59;88.28
50011;BME280;35899;50.352;19.390;2022-12-18T09:23:14;99643.47;;;-0.73;87.49
50011;BME280;35899;50.352;19.390;2022-12-18T09:25:41;99643.83;;;-0.92;87.01
50011;BME280;35899;50.352;19.390;2022-12-18T09:28:15;99643.34;;;-1.10;87.20
50011;BME280;35899;50.352;19.390;2022-12-18T09:30:46;99644.58;;;-1.14;87.68
50011;BME280;35899;50.352;19.390;2022-12-18T09:33:14;99648.38;;;-1.24;87.85
50011;BME280;35899;50.352;19.390;2022-12-18T09:35:43;99641.20;;;-1.18;88.81
50011;BME280;35899;50.352;19.390;2022-12-18T09:38:18;99640.32;;;-1.19;88.86
50011;BME280;35899;50.352;19.390;2022-12-18T09:40:51;99641.56;;;-1.26;88.45
50011;BME280;35899;50.352;19.390;2022-12-18T09:43:25;99635.58;;;-1.34;88.25
50011;BME280;35899;50.352;19.390;2022-12-18T09:45:57;99642.80;;;-1.37;88.09
50011;BME280;35899;50.352;19.390;2022-12-18T09:48:28;99642.69;;;-1.51;87.04
50011;BME280;35899;50.352;19.390;2022-12-18T09:51:00;99643.44;;;-1.66;86.72
50011;BME280;35899;50.352;19.390;2022-12-18T09:53:31;99647.22;;;-1.75;86.95
50011;BME280;35899;50.352;19.390;2022-12-18T09:56:02;99658.59;;;-1.86;86.48
50011;BME280;35899;50.352;19.390;2022-12-18T09:58:34;99652.50;;;-2.05;85.90
50011;BME280;35899;50.352;19.390;2022-12-18T10:01:20;99653.64;;;-2.20;86.35
50011;BME280;35899;50.352;19.390;2022-12-18T10:03:44;99651.50;;;-2.22;86.84
50011;BME280;35899;50.352;19.390;2022-12-18T10:06:39;99651.01;;;-2.29;86.97
50011;BME280;35899;50.352;19.390;2022-12-18T10:09:33;99652.31;;;-2.26;87.40
50011;BME280;35899;50.352;19.390;2022-12-18T10:12:17;99652.84;;;-2.14;88.10
50011;BME280;35899;50.352;19.390;2022-12-18T10:20:47;99651.59;;;-2.10;87.43
50011;BME280;35899;50.352;19.390;2022-12-18T10:23:38;99655.87;;;-2.06;87.79
50011;BME280;35899;50.352;19.390;2022-12-18T10:26:19;99657.20;;;-2.01;88.05
50011;BME280;35899;50.352;19.390;2022-12-18T10:28:46;99650.93;;;-1.90;88.57
50011;BME280;35899;50.352;19.390;2022-12-18T10:31:16;99645.84;;;-1.87;88.21
50011;BME280;35899;50.352;19.390;2022-12-18T10:33:44;99640.79;;;-1.84;88.39
50011;BME280;35899;50.352;19.390;2022-12-18T10:36:11;99643.78;;;-1.80;88.38
50011;BME280;35899;50.352;19.390;2022-12-18T10:38:38;99637.47;;;-1.72;88.73
50011;BME280;35899;50.352;19.390;2022-12-18T10:41:13;99642.58;;;-1.68;88.45
50011;BME280;35899;50.352;19.390;2022-12-18T10:43:45;99632.00;;;-1.64;88.46
50011;BME280;35899;50.352;19.390;2022-12-18T10:46:17;99634.94;;;-1.68;88.02
50011;BME280;35899;50.352;19.390;2022-12-18T10:48:54;99637.09;;;-1.67;87.80
50011;BME280;35899;50.352;19.390;2022-12-18T10:51:31;99631.98;;;-1.66;87.49
50011;BME280;35899;50.352;19.390;2022-12-18T10:54:17;99622.29;;;-1.57;87.84
50011;BME280;35899;50.352;19.390;2022-12-18T10:56:45;99624.49;;;-1.41;88.22
50011;BME280;35899;50.352;19.390;2022-12-18T10:59:14;99620.28;;;-1.36;87.87
50011;BME280;35899;50.352;19.390;2022-12-18T11:04:22;99618.07;;;-1.53;86.01
50011;BME280;35899;50.352;19.390;2022-12-18T11:07:02;99616.31;;;-1.65;86.34
50011;BME280;35899;50.352;19.390;2022-12-18T11:09:35;99617.98;;;-1.66;86.40
50011;BME280;35899;50.352;19.390;2022-12-18T11:12:17;99617.59;;;-1.64;86.69
50011;BME280;35899;50.352;19.390;2022-12-18T11:14:44;99614.22;;;-1.57;86.76
50011;BME280;35899;50.352;19.390;2022-12-18T11:17:25;99609.19;;;-1.50;86.76
50011;BME280;35899;50.352;19.390;2022-12-18T11:20:02;99602.00;;;-1.42;86.68
50011;BME280;35899;50.352;19.390;2022-12-18T11:22:32;99606.31;;;-1.27;86.66
50011;BME280;35899;50.352;19.390;2022-12-18T11:27:50;99609.30;;;-1.23;85.46
50011;BME280;35899;50.352;19.390;2022-12-18T11:30:25;99607.59;;;-1.22;85.64
50011;BME280;35899;50.352;19.390;2022-12-18T11:33:14;99611.05;;;-1.15;85.37
50011;BME280;35899;50.352;19.390;2022-12-18T11:38:27;99614.13;;;-0.81;84.92
50011;BME280;35899;50.352;19.390;2022-12-18T11:40:59;99606.10;;;-0.66;85.00
50011;BME280;35899;50.352;19.390;2022-12-18T11:43:32;99606.99;;;-0.46;85.88
50011;BME280;35899;50.352;19.390;2022-12-18T11:46:15;99607.83;;;-0.34;85.43
50011;BME280;35899;50.352;19.390;2022-12-18T11:49:10;99611.69;;;-0.21;84.54
50011;BME280;35899;50.352;19.390;2022-12-18T11:51:54;99609.12;;;0.03;83.59
50011;BME280;35899;50.352;19.390;2022-12-18T11:54:21;99619.30;;;0.30;83.19
50011;BME280;35899;50.352;19.390;2022-12-18T11:57:03;99618.86;;;0.34;82.86
50011;BME280;35899;50.352;19.390;2022-12-18T12:08:22;99617.10;;;0.61;82.53
50011;BME280;35899;50.352;19.390;2022-12-18T12:11:12;99618.00;;;0.52;82.10
50011;BME280;35899;50.352;19.390;2022-12-18T12:19:41;99622.55;;;0.89;79.85
50011;BME280;35899;50.352;19.390;2022-12-18T12:33:24;99632.22;;;1.91;76.62
50011;BME280;35899;50.352;19.390;2022-12-18T12:36:26;99636.50;;;1.89;76.63
50011;BME280;35899;50.352;19.390;2022-12-18T12:39:06;99641.13;;;2.46;77.36
50011;BME280;35899;50.352;19.390;2022-12-18T12:41:35;99639.12;;;2.31;76.17
50011;BME280;35899;50.352;19.390;2022-12-18T12:44:06;99650.59;;;1.86;75.60
50011;BME280;35899;50.352;19.390;2022-12-18T12:46:37;99653.41;;;1.46;75.37
50011;BME280;35899;50.352;19.390;2022-12-18T12:49:14;99648.89;;;1.08;75.64
50011;BME280;35899;50.352;19.390;2022-12-18T12:51:40;99648.64;;;0.61;75.50
50011;BME280;35899;50.352;19.390;2022-12-18T12:54:22;99653.80;;;0.26;75.77
50011;BME280;35899;50.352;19.390;2022-12-18T12:57:13;99656.34;;;-0.08;75.97
50011;BME280;35899;50.352;19.390;2022-12-18T13:02:42;99661.45;;;-0.13;77.82
50011;BME280;35899;50.352;19.390;2022-12-18T13:05:50;99658.86;;;-0.34;77.38
50011;BME280;35899;50.352;19.390;2022-12-18T13:08:30;99659.63;;;-0.74;77.06
50011;BME280;35899;50.352;19.390;2022-12-18T13:10:59;99667.57;;;-1.08;76.99
50011;BME280;35899;50.352;19.390;2022-12-18T13:13:27;99672.07;;;-1.39;77.66
50011;BME280;35899;50.352;19.390;2022-12-18T13:16:07;99668.09;;;-1.63;77.83
50011;BME280;35899;50.352;19.390;2022-12-18T13:18:35;99670.06;;;-1.84;78.38
50011;BME280;35899;50.352;19.390;2022-12-18T13:21:20;99674.13;;;-2.05;78.89
50011;BME280;35899;50.352;19.390;2022-12-18T13:23:48;99682.02;;;-2.24;78.85
50011;BME280;35899;50.352;19.390;2022-12-18T13:28:53;99683.78;;;-2.59;79.39
50011;BME280;35899;50.352;19.390;2022-12-18T13:34:22;99690.98;;;-2.94;79.91
50011;BME280;35899;50.352;19.390;2022-12-18T13:36:50;99683.96;;;-3.13;79.91
50011;BME280;35899;50.352;19.390;2022-12-18T13:42:25;99680.14;;;-3.46;80.17
50011;BME280;35899;50.352;19.390;2022-12-18T13:44:38;99688.77;;;-3.62;80.29
50011;BME280;35899;50.352;19.390;2022-12-18T13:47:03;99689.41;;;-3.75;80.49
50011;BME280;35899;50.352;19.390;2022-12-18T13:49:42;99692.09;;;-3.93;80.54
50011;BME280;35899;50.352;19.390;2022-12-18T13:52:27;99696.03;;;-4.10;80.65
50011;BME280;35899;50.352;19.390;2022-12-18T13:54:56;99696.22;;;-4.24;80.89
50011;BME280;35899;50.352;19.390;2022-12-18T13:57:37;99698.48;;;-4.40;81.20
50011;BME280;35899;50.352;19.390;2022-12-18T14:00:28;99703.34;;;-4.50;81.51
50011;BME280;35899;50.352;19.390;2022-12-18T14:02:57;99699.29;;;-4.64;81.67
50011;BME280;35899;50.352;19.390;2022-12-18T14:05:34;99701.56;;;-4.77;82.10
50011;BME280;35899;50.352;19.390;2022-12-18T14:08:08;99699.23;;;-4.88;82.25
50011;BME280;35899;50.352;19.390;2022-12-18T14:10:35;99706.63;;;-4.99;82.45
50011;BME280;35899;50.352;19.390;2022-12-18T14:13:10;99700.44;;;-5.12;82.42
50011;BME280;35899;50.352;19.390;2022-12-18T14:15:41;99701.38;;;-5.27;82.60
50011;BME280;35899;50.352;19.390;2022-12-18T14:20:51;99709.36;;;-5.46;83.15
50011;BME280;35899;50.352;19.390;2022-12-18T14:26:19;99708.45;;;-5.67;83.48
50011;BME280;35899;50.352;19.390;2022-12-18T14:28:50;99706.06;;;-5.80;83.89
50011;BME280;35899;50.352;19.390;2022-12-18T14:31:22;99703.69;;;-5.92;84.02
50011;BME280;35899;50.352;19.390;2022-12-18T14:33:51;99706.86;;;-6.00;84.12
50011;BME280;35899;50.352;19.390;2022-12-18T14:36:21;99701.61;;;-6.08;84.48